sensor_id;sensor_type;location;lat;lon;timestamp;temperature;humidity
16736;DHT22;17990;49.548;9.730;2023-06-14T00:01:34;13.40;99.90
16736;DHT22;17990;49.548;9.730;2023-06-14T00:04:01;13.40;99.90
16736;DHT22;17990;49.548;9.730;2023-06-14T00:06:29;13.40;99.90
16736;DHT22;17990;49.548;9.730;2023-06-14T00:08:56;13.30;99.90
16736;DHT22;17990;49.548;9.730;2023-06-14T00:11:23;13.30;99.90
16736;DHT22;17990;49.548;9.730;2023-06-14T00:13:52;13.30;99.90
16736;DHT22;17990;49.548;9.730;2023-06-14T00:16:19;13.20;99.90
16736;DHT22;17990;49.548;9.730;2023-06-14T00:18:46;13.20;99.90
16736;DHT22;17990;49.548;9.730;2023-06-14T00:21:13;13.20;99.90
16736;DHT22;17990;49.548;9.730;2023-06-14T00:23:41;13.10;99.90
16736;DHT22;17990;49.548;9.730;2023-06-14T00:26:08;13.10;99.90
16736;DHT22;17990;49.548;9.730;2023-06-14T00:28:36;13.10;99.90
16736;DHT22;17990;49.548;9.730;2023-06-14T00:31:02;13.00;99.90
16736;DHT22;17990;49.548;9.730;2023-06-14T00:33:30;13.00;99.90
16736;DHT22;17990;49.548;9.730;2023-06-14T00:35:57;12.90;99.90
16736;DHT22;17990;49.548;9.730;2023-06-14T00:38:24;12.80;99.90
16736;DHT22;17990;49.548;9.730;2023-06-14T00:40:52;12.70;99.90
16736;DHT22;17990;49.548;9.730;2023-06-14T00:43:19;12.50;99.90
16736;DHT22;17990;49.548;9.730;2023-06-14T00:45:46;12.40;99.90
16736;DHT22;17990;49.548;9.730;2023-06-14T00:48:15;12.40;99.90
16736;DHT22;17990;49.548;9.730;2023-06-14T00:50:42;12.40;99.90
16736;DHT22;17990;49.548;9.730;2023-06-14T00:53:11;12.40;99.90
16736;DHT22;17990;49.548;9.730;2023-06-14T00:55:38;12.40;99.90
16736;DHT22;17990;49.548;9.730;2023-06-14T00:58:06;12.40;99.90
16736;DHT22;17990;49.548;9.730;2023-06-14T01:00:34;12.40;99.90
16736;DHT22;17990;49.548;9.730;2023-06-14T01:03:01;12.40;99.90
16736;DHT22;17990;49.548;9.730;2023-06-14T01:05:29;12.40;99.90
16736;DHT22;17990;49.548;9.730;2023-06-14T01:08:05;12.30;99.90
16736;DHT22;17990;49.548;9.730;2023-06-14T01:10:47;12.30;99.90
16736;DHT22;17990;49.548;9.730;2023-06-14T01:13:25;12.30;99.90
16736;DHT22;17990;49.548;9.730;2023-06-14T01:15:55;12.30;99.90
16736;DHT22;17990;49.548;9.730;2023-06-14T01:18:23;12.30;99.90
16736;DHT22;17990;49.548;9.730;2023-06-14T01:20:51;12.30;99.90
16736;DHT22;17990;49.548;9.730;2023-06-14T01:23:23;12.20;99.90
16736;DHT22;17990;49.548;9.730;2023-06-14T01:25:50;12.20;99.90
16736;DHT22;17990;49.548;9.730;2023-06-14T01:28:19;12.10;99.90
16736;DHT22;17990;49.548;9.730;2023-06-14T01:30:49;12.10;99.90
16736;DHT22;17990;49.548;9.730;2023-06-14T01:33:20;12.10;99.90
16736;DHT22;17990;49.548;9.730;2023-06-14T01:35:50;12.00;99.90
16736;DHT22;17990;49.548;9.730;2023-06-14T01:38:21;12.00;99.90
16736;DHT22;17990;49.548;9.730;2023-06-14T01:40:50;11.90;99.90
16736;DHT22;17990;49.548;9.730;2023-06-14T01:43:19;11.90;99.90
16736;DHT22;17990;49.548;9.730;2023-06-14T01:45:48;11.90;99.90
16736;DHT22;17990;49.548;9.730;2023-06-14T01:48:15;11.90;99.90
16736;DHT22;17990;49.548;9.730;2023-06-14T01:50:43;11.90;99.90
16736;DHT22;17990;49.548;9.730;2023-06-14T01:53:10;11.80;99.90
16736;DHT22;17990;49.548;9.730;2023-06-14T01:55:38;11.80;99.90
16736;DHT22;17990;49.548;9.730;2023-06-14T01:58:09;11.80;99.90
16736;DHT22;17990;49.548;9.730;2023-06-14T02:00:35;11.80;99.90
16736;DHT22;17990;49.548;9.730;2023-06-14T02:03:03;11.80;99.90
16736;DHT22;17990;49.548;9.730;2023-06-14T02:05:30;11.70;99.90
16736;DHT22;17990;49.548;9.730;2023-06-14T02:07:57;11.60;99.90
16736;DHT22;17990;49.548;9.730;2023-06-14T02:10:24;11.50;99.90
16736;DHT22;17990;49.548;9.730;2023-06-14T02:12:52;11.60;99.90
16736;DHT22;17990;49.548;9.730;2023-06-14T02:15:19;11.50;99.90
16736;DHT22;17990;49.548;9.730;2023-06-14T02:17:47;11.50;99.90
16736;DHT22;17990;49.548;9.730;2023-06-14T02:20:15;11.40;99.90
16736;DHT22;17990;49.548;9.730;2023-06-14T02:22:43;11.40;99.90
16736;DHT22;17990;49.548;9.730;2023-06-14T02:25:10;11.50;99.90
16736;DHT22;17990;49.548;9.730;2023-06-14T02:27:37;11.50;99.90
16736;DHT22;17990;49.548;9.730;2023-06-14T02:30:06;11.40;99.90
16736;DHT22;17990;49.548;9.730;2023-06-14T02:32:34;11.40;99.90
16736;DHT22;17990;49.548;9.730;2023-06-14T02:35:01;11.30;99.90
16736;DHT22;17990;49.548;9.730;2023-06-14T02:37:28;11.20;99.90
16736;DHT22;17990;49.548;9.730;2023-06-14T02:39:55;11.20;99.90
16736;DHT22;17990;49.548;9.730;2023-06-14T02:42:22;11.20;99.90
16736;DHT22;17990;49.548;9.730;2023-06-14T02:44:49;11.20;99.90
16736;DHT22;17990;49.548;9.730;2023-06-14T02:47:18;11.20;99.90
16736;DHT22;17990;49.548;9.730;2023-06-14T02:49:45;11.10;99.90
16736;DHT22;17990;49.548;9.730;2023-06-14T02:52:13;11.10;99.90
16736;DHT22;17990;49.548;9.730;2023-06-14T02:54:39;11.10;99.90
16736;DHT22;17990;49.548;9.730;2023-06-14T02:57:07;11.00;99.90
16736;DHT22;17990;49.548;9.730;2023-06-14T02:59:34;11.00;99.90
16736;DHT22;17990;49.548;9.730;2023-06-14T03:02:01;11.00;99.90
16736;DHT22;17990;49.548;9.730;2023-06-14T03:04:30;11.00;99.90
16736;DHT22;17990;49.548;9.730;2023-06-14T03:07:00;11.00;99.90
16736;DHT22;17990;49.548;9.730;2023-06-14T03:09:28;10.90;99.90
16736;DHT22;17990;49.548;9.730;2023-06-14T03:11:55;10.90;99.90
16736;DHT22;17990;49.548;9.730;2023-06-14T03:14:22;10.90;99.90
16736;DHT22;17990;49.548;9.730;2023-06-14T03:16:49;10.90;99.90
16736;DHT22;17990;49.548;9.730;2023-06-14T03:19:22;10.90;99.90
16736;DHT22;17990;49.548;9.730;2023-06-14T03:21:50;11.00;99.90
16736;DHT22;17990;49.548;9.730;2023-06-14T03:24:17;11.00;99.90
16736;DHT22;17990;49.548;9.730;2023-06-14T03:26:44;11.00;99.90
16736;DHT22;17990;49.548;9.730;2023-06-14T03:29:11;10.90;99.90
16736;DHT22;17990;49.548;9.730;2023-06-14T03:31:56;10.90;99.90
16736;DHT22;17990;49.548;9.730;2023-06-14T03:34:24;10.90;99.90
16736;DHT22;17990;49.548;9.730;2023-06-14T03:36:52;10.90;99.90
16736;DHT22;17990;49.548;9.730;2023-06-14T03:39:20;10.90;99.90
16736;DHT22;17990;49.548;9.730;2023-06-14T03:41:46;10.90;99.90
16736;DHT22;17990;49.548;9.730;2023-06-14T03:44:15;10.80;99.90
16736;DHT22;17990;49.548;9.730;2023-06-14T03:46:43;10.80;99.90
16736;DHT22;17990;49.548;9.730;2023-06-14T03:49:10;10.80;99.90
16736;DHT22;17990;49.548;9.730;2023-06-14T03:51:38;10.90;99.90
16736;DHT22;17990;49.548;9.730;2023-06-14T03:54:07;10.90;99.90
16736;DHT22;17990;49.548;9.730;2023-06-14T03:56:34;11.00;99.90
16736;DHT22;17990;49.548;9.730;2023-06-14T03:59:01;11.00;99.90
16736;DHT22;17990;49.548;9.730;2023-06-14T04:01:28;11.00;99.90
16736;DHT22;17990;49.548;9.730;2023-06-14T04:03:56;11.00;99.90
16736;DHT22;17990;49.548;9.730;2023-06-14T04:06:24;11.00;99.90
16736;DHT22;17990;49.548;9.730;2023-06-14T04:08:58;10.90;99.90
16736;DHT22;17990;49.548;9.730;2023-06-14T04:11:30;10.90;99.90
16736;DHT22;17990;49.548;9.730;2023-06-14T04:13:58;11.00;99.90
16736;DHT22;17990;49.548;9.730;2023-06-14T04:16:25;11.20;99.90
16736;DHT22;17990;49.548;9.730;2023-06-14T04:18:53;11.30;99.90
16736;DHT22;17990;49.548;9.730;2023-06-14T04:21:20;11.40;99.90
16736;DHT22;17990;49.548;9.730;2023-06-14T04:23:49;11.50;99.90
16736;DHT22;17990;49.548;9.730;2023-06-14T04:26:18;11.50;99.90
16736;DHT22;17990;49.548;9.730;2023-06-14T04:28:47;11.50;99.90
16736;DHT22;17990;49.548;9.730;2023-06-14T04:31:15;11.60;99.90
16736;DHT22;17990;49.548;9.730;2023-06-14T04:33:41;11.70;99.90
16736;DHT22;17990;49.548;9.730;2023-06-14T04:36:11;11.60;99.90
16736;DHT22;17990;49.548;9.730;2023-06-14T04:38:38;11.80;99.90
16736;DHT22;17990;49.548;9.730;2023-06-14T04:41:06;11.90;99.90
16736;DHT22;17990;49.548;9.730;2023-06-14T04:43:37;11.90;99.90
16736;DHT22;17990;49.548;9.730;2023-06-14T04:46:06;12.00;99.90
16736;DHT22;17990;49.548;9.730;2023-06-14T04:48:36;12.00;99.90
16736;DHT22;17990;49.548;9.730;2023-06-14T04:51:06;12.10;99.90
16736;DHT22;17990;49.548;9.730;2023-06-14T04:53:33;12.20;99.90
16736;DHT22;17990;49.548;9.730;2023-06-14T04:56:00;12.30;99.90
16736;DHT22;17990;49.548;9.730;2023-06-14T04:58:28;12.50;99.90
16736;DHT22;17990;49.548;9.730;2023-06-14T05:00:56;12.60;99.90
16736;DHT22;17990;49.548;9.730;2023-06-14T05:03:25;12.50;99.90
16736;DHT22;17990;49.548;9.730;2023-06-14T05:05:53;12.60;99.90
16736;DHT22;17990;49.548;9.730;2023-06-14T05:08:20;12.70;99.90
16736;DHT22;17990;49.548;9.730;2023-06-14T05:10:48;12.80;99.90
16736;DHT22;17990;49.548;9.730;2023-06-14T05:13:15;12.80;99.90
16736;DHT22;17990;49.548;9.730;2023-06-14T05:15:42;12.90;99.90
16736;DHT22;17990;49.548;9.730;2023-06-14T05:18:09;13.50;99.90
16736;DHT22;17990;49.548;9.730;2023-06-14T05:20:38;16.50;99.90
16736;DHT22;17990;49.548;9.730;2023-06-14T05:23:07;19.60;99.90
16736;DHT22;17990;49.548;9.730;2023-06-14T05:25:34;21.30;98.50
16736;DHT22;17990;49.548;9.730;2023-06-14T05:28:01;22.40;93.90
16736;DHT22;17990;49.548;9.730;2023-06-14T05:30:28;22.90;91.30
16736;DHT22;17990;49.548;9.730;2023-06-14T05:32:56;23.70;88.50
16736;DHT22;17990;49.548;9.730;2023-06-14T05:35:23;24.00;85.70
16736;DHT22;17990;49.548;9.730;2023-06-14T05:37:53;24.80;82.20
16736;DHT22;17990;49.548;9.730;2023-06-14T05:40:20;24.70;79.90
16736;DHT22;17990;49.548;9.730;2023-06-14T05:42:47;25.50;77.40
16736;DHT22;17990;49.548;9.730;2023-06-14T05:45:14;26.20;74.20
16736;DHT22;17990;49.548;9.730;2023-06-14T05:47:41;26.40;72.70
16736;DHT22;17990;49.548;9.730;2023-06-14T05:50:09;28.00;68.40
16736;DHT22;17990;49.548;9.730;2023-06-14T05:52:36;29.10;64.80
16736;DHT22;17990;49.548;9.730;2023-06-14T05:55:05;30.50;61.30
16736;DHT22;17990;49.548;9.730;2023-06-14T05:57:32;31.50;58.10
16736;DHT22;17990;49.548;9.730;2023-06-14T05:59:59;32.30;55.50
16736;DHT22;17990;49.548;9.730;2023-06-14T06:02:26;31.70;54.70
16736;DHT22;17990;49.548;9.730;2023-06-14T06:04:53;32.10;53.50
16736;DHT22;17990;49.548;9.730;2023-06-14T06:07:20;33.40;51.50
16736;DHT22;17990;49.548;9.730;2023-06-14T06:09:47;33.00;50.10
16736;DHT22;17990;49.548;9.730;2023-06-14T06:12:15;32.50;50.90
16736;DHT22;17990;49.548;9.730;2023-06-14T06:14:42;33.20;49.80
16736;DHT22;17990;49.548;9.730;2023-06-14T06:17:09;32.30;49.90
16736;DHT22;17990;49.548;9.730;2023-06-14T06:19:36;33.30;49.70
16736;DHT22;17990;49.548;9.730;2023-06-14T06:22:03;34.60;47.70
16736;DHT22;17990;49.548;9.730;2023-06-14T06:24:31;35.30;46.40
16736;DHT22;17990;49.548;9.730;2023-06-14T06:26:58;35.90;45.50
16736;DHT22;17990;49.548;9.730;2023-06-14T06:29:27;36.30;44.40
16736;DHT22;17990;49.548;9.730;2023-06-14T06:31:54;35.70;44.60
16736;DHT22;17990;49.548;9.730;2023-06-14T06:34:21;35.40;44.70
16736;DHT22;17990;49.548;9.730;2023-06-14T06:36:48;35.80;44.10
16736;DHT22;17990;49.548;9.730;2023-06-14T06:39:15;36.10;43.70
16736;DHT22;17990;49.548;9.730;2023-06-14T06:41:42;36.40;43.10
16736;DHT22;17990;49.548;9.730;2023-06-14T06:44:09;36.60;42.90
16736;DHT22;17990;49.548;9.730;2023-06-14T06:46:38;36.00;43.10
16736;DHT22;17990;49.548;9.730;2023-06-14T06:49:06;36.50;43.10
16736;DHT22;17990;49.548;9.730;2023-06-14T06:51:34;35.50;43.60
16736;DHT22;17990;49.548;9.730;2023-06-14T06:54:01;34.80;44.10
16736;DHT22;17990;49.548;9.730;2023-06-14T06:56:28;34.50;44.60
16736;DHT22;17990;49.548;9.730;2023-06-14T06:58:57;34.80;44.30
16736;DHT22;17990;49.548;9.730;2023-06-14T07:01:23;34.90;44.40
16736;DHT22;17990;49.548;9.730;2023-06-14T07:03:52;35.10;44.00
16736;DHT22;17990;49.548;9.730;2023-06-14T07:06:20;34.70;44.30
16736;DHT22;17990;49.548;9.730;2023-06-14T07:08:46;34.80;44.30
16736;DHT22;17990;49.548;9.730;2023-06-14T07:11:16;34.50;44.80
16736;DHT22;17990;49.548;9.730;2023-06-14T07:13:43;34.50;45.10
16736;DHT22;17990;49.548;9.730;2023-06-14T07:16:10;32.30;47.90
16736;DHT22;17990;49.548;9.730;2023-06-14T07:18:37;32.30;47.70
16736;DHT22;17990;49.548;9.730;2023-06-14T07:21:05;33.50;46.50
16736;DHT22;17990;49.548;9.730;2023-06-14T07:23:32;34.90;44.40
16736;DHT22;17990;49.548;9.730;2023-06-14T07:25:59;33.60;45.80
16736;DHT22;17990;49.548;9.730;2023-06-14T07:28:26;32.80;46.70
16736;DHT22;17990;49.548;9.730;2023-06-14T07:30:53;32.60;47.40
16736;DHT22;17990;49.548;9.730;2023-06-14T07:33:20;31.30;49.30
16736;DHT22;17990;49.548;9.730;2023-06-14T07:35:47;31.10;49.60
16736;DHT22;17990;49.548;9.730;2023-06-14T07:38:16;32.80;47.80
16736;DHT22;17990;49.548;9.730;2023-06-14T07:40:43;33.20;46.40
16736;DHT22;17990;49.548;9.730;2023-06-14T07:43:09;33.70;46.10
16736;DHT22;17990;49.548;9.730;2023-06-14T07:45:37;32.20;47.70
16736;DHT22;17990;49.548;9.730;2023-06-14T07:48:04;31.80;48.70
16736;DHT22;17990;49.548;9.730;2023-06-14T07:50:31;32.30;48.30
16736;DHT22;17990;49.548;9.730;2023-06-14T07:52:58;32.40;48.30
16736;DHT22;17990;49.548;9.730;2023-06-14T07:55:26;32.90;47.40
16736;DHT22;17990;49.548;9.730;2023-06-14T07:57:54;31.50;49.00
16736;DHT22;17990;49.548;9.730;2023-06-14T08:00:21;31.60;49.40
16736;DHT22;17990;49.548;9.730;2023-06-14T08:02:47;30.80;50.50
16736;DHT22;17990;49.548;9.730;2023-06-14T08:05:14;32.20;49.00
16736;DHT22;17990;49.548;9.730;2023-06-14T08:07:41;31.80;49.30
16736;DHT22;17990;49.548;9.730;2023-06-14T08:10:09;32.00;48.90
16736;DHT22;17990;49.548;9.730;2023-06-14T08:12:37;30.50;51.40
16736;DHT22;17990;49.548;9.730;2023-06-14T08:15:05;30.80;50.80
16736;DHT22;17990;49.548;9.730;2023-06-14T08:17:32;30.50;51.20
16736;DHT22;17990;49.548;9.730;2023-06-14T08:19:59;30.70;50.90
16736;DHT22;17990;49.548;9.730;2023-06-14T08:22:26;30.80;51.50
16736;DHT22;17990;49.548;9.730;2023-06-14T08:24:57;30.30;51.90
16736;DHT22;17990;49.548;9.730;2023-06-14T08:27:24;28.80;53.80
16736;DHT22;17990;49.548;9.730;2023-06-14T08:29:52;28.40;54.80
16736;DHT22;17990;49.548;9.730;2023-06-14T08:32:19;27.70;55.90
16736;DHT22;17990;49.548;9.730;2023-06-14T08:34:46;27.80;55.90
16736;DHT22;17990;49.548;9.730;2023-06-14T08:37:13;28.40;54.80
16736;DHT22;17990;49.548;9.730;2023-06-14T08:39:40;29.30;53.60
16736;DHT22;17990;49.548;9.730;2023-06-14T08:42:09;28.20;55.50
16736;DHT22;17990;49.548;9.730;2023-06-14T08:44:36;28.00;55.90
16736;DHT22;17990;49.548;9.730;2023-06-14T08:47:06;27.80;55.80
16736;DHT22;17990;49.548;9.730;2023-06-14T08:49:36;27.80;56.40
16736;DHT22;17990;49.548;9.730;2023-06-14T08:52:05;27.00;57.70
16736;DHT22;17990;49.548;9.730;2023-06-14T08:54:36;26.40;59.50
16736;DHT22;17990;49.548;9.730;2023-06-14T08:57:10;25.70;60.10
16736;DHT22;17990;49.548;9.730;2023-06-14T08:59:46;25.30;60.80
16736;DHT22;17990;49.548;9.730;2023-06-14T09:02:15;26.00;60.40
16736;DHT22;17990;49.548;9.730;2023-06-14T09:04:47;25.70;60.40
16736;DHT22;17990;49.548;9.730;2023-06-14T09:07:15;25.60;60.20
16736;DHT22;17990;49.548;9.730;2023-06-14T09:09:42;25.40;60.90
16736;DHT22;17990;49.548;9.730;2023-06-14T09:12:10;25.00;61.90
16736;DHT22;17990;49.548;9.730;2023-06-14T09:14:38;25.20;61.60
16736;DHT22;17990;49.548;9.730;2023-06-14T09:17:07;24.80;61.10
16736;DHT22;17990;49.548;9.730;2023-06-14T09:19:35;24.20;60.50
16736;DHT22;17990;49.548;9.730;2023-06-14T09:22:03;24.20;60.20
16736;DHT22;17990;49.548;9.730;2023-06-14T09:24:30;24.20;61.30
16736;DHT22;17990;49.548;9.730;2023-06-14T09:26:57;24.60;60.00
16736;DHT22;17990;49.548;9.730;2023-06-14T09:29:24;25.10;59.10
16736;DHT22;17990;49.548;9.730;2023-06-14T09:31:52;25.40;59.00
16736;DHT22;17990;49.548;9.730;2023-06-14T09:34:20;25.40;58.30
16736;DHT22;17990;49.548;9.730;2023-06-14T09:36:50;24.90;58.50
16736;DHT22;17990;49.548;9.730;2023-06-14T09:39:17;24.40;59.80
16736;DHT22;17990;49.548;9.730;2023-06-14T09:41:44;24.40;61.70
16736;DHT22;17990;49.548;9.730;2023-06-14T09:44:11;24.50;61.40
16736;DHT22;17990;49.548;9.730;2023-06-14T09:46:38;24.70;60.90
16736;DHT22;17990;49.548;9.730;2023-06-14T09:49:06;25.00;60.20
16736;DHT22;17990;49.548;9.730;2023-06-14T09:51:33;25.10;59.80
16736;DHT22;17990;49.548;9.730;2023-06-14T09:54:03;25.40;59.40
16736;DHT22;17990;49.548;9.730;2023-06-14T09:56:36;25.50;59.30
16736;DHT22;17990;49.548;9.730;2023-06-14T09:59:05;25.70;59.70
16736;DHT22;17990;49.548;9.730;2023-06-14T10:01:34;25.60;59.80
16736;DHT22;17990;49.548;9.730;2023-06-14T10:04:04;24.90;60.10
16736;DHT22;17990;49.548;9.730;2023-06-14T10:06:37;24.80;60.90
16736;DHT22;17990;49.548;9.730;2023-06-14T10:09:08;25.00;61.40
16736;DHT22;17990;49.548;9.730;2023-06-14T10:11:36;25.20;61.40
16736;DHT22;17990;49.548;9.730;2023-06-14T10:14:06;25.20;60.80
16736;DHT22;17990;49.548;9.730;2023-06-14T10:16:37;25.10;60.70
16736;DHT22;17990;49.548;9.730;2023-06-14T10:19:14;25.20;60.20
16736;DHT22;17990;49.548;9.730;2023-06-14T10:21:49;24.90;61.00
16736;DHT22;17990;49.548;9.730;2023-06-14T10:24:27;24.40;61.40
16736;DHT22;17990;49.548;9.730;2023-06-14T10:26:58;24.20;61.50
16736;DHT22;17990;49.548;9.730;2023-06-14T10:29:26;24.20;61.60
16736;DHT22;17990;49.548;9.730;2023-06-14T10:31:58;24.20;60.20
16736;DHT22;17990;49.548;9.730;2023-06-14T10:34:26;24.40;59.80
16736;DHT22;17990;49.548;9.730;2023-06-14T10:37:02;24.60;59.40
16736;DHT22;17990;49.548;9.730;2023-06-14T10:39:33;24.50;61.00
16736;DHT22;17990;49.548;9.730;2023-06-14T10:42:05;24.50;61.10
16736;DHT22;17990;49.548;9.730;2023-06-14T10:44:42;24.50;60.00
16736;DHT22;17990;49.548;9.730;2023-06-14T10:47:20;24.20;60.20
16736;DHT22;17990;49.548;9.730;2023-06-14T10:49:50;24.60;59.90
16736;DHT22;17990;49.548;9.730;2023-06-14T10:52:22;25.00;58.40
16736;DHT22;17990;49.548;9.730;2023-06-14T10:55:15;24.90;58.40
16736;DHT22;17990;49.548;9.730;2023-06-14T10:57:45;24.60;59.00
16736;DHT22;17990;49.548;9.730;2023-06-14T11:00:15;24.40;58.40
16736;DHT22;17990;49.548;9.730;2023-06-14T11:05:57;25.50;57.50
16736;DHT22;17990;49.548;9.730;2023-06-14T11:08:39;25.50;58.30
16736;DHT22;17990;49.548;9.730;2023-06-14T11:11:15;25.10;58.80
16736;DHT22;17990;49.548;9.730;2023-06-14T11:13:44;24.80;59.10
16736;DHT22;17990;49.548;9.730;2023-06-14T11:16:12;24.30;59.10
16736;DHT22;17990;49.548;9.730;2023-06-14T11:18:41;24.00;60.00
16736;DHT22;17990;49.548;9.730;2023-06-14T11:21:08;24.00;60.00
16736;DHT22;17990;49.548;9.730;2023-06-14T11:23:35;24.20;59.60
16736;DHT22;17990;49.548;9.730;2023-06-14T11:26:02;24.40;59.60
16736;DHT22;17990;49.548;9.730;2023-06-14T11:28:38;24.80;58.50
16736;DHT22;17990;49.548;9.730;2023-06-14T11:31:06;25.20;57.80
16736;DHT22;17990;49.548;9.730;2023-06-14T11:33:34;25.30;57.20
16736;DHT22;17990;49.548;9.730;2023-06-14T11:36:02;25.20;57.20
16736;DHT22;17990;49.548;9.730;2023-06-14T11:38:30;24.90;56.70
16736;DHT22;17990;49.548;9.730;2023-06-14T11:40:59;24.70;57.50
16736;DHT22;17990;49.548;9.730;2023-06-14T11:43:26;25.20;58.50
16736;DHT22;17990;49.548;9.730;2023-06-14T11:45:55;24.70;58.60
16736;DHT22;17990;49.548;9.730;2023-06-14T11:48:22;24.80;58.70
16736;DHT22;17990;49.548;9.730;2023-06-14T11:50:50;25.00;58.00
16736;DHT22;17990;49.548;9.730;2023-06-14T11:53:18;25.50;57.50
16736;DHT22;17990;49.548;9.730;2023-06-14T11:55:45;26.10;56.70
16736;DHT22;17990;49.548;9.730;2023-06-14T11:58:13;26.10;56.90
16736;DHT22;17990;49.548;9.730;2023-06-14T12:00:41;26.20;57.10
16736;DHT22;17990;49.548;9.730;2023-06-14T12:03:11;26.00;56.80
16736;DHT22;17990;49.548;9.730;2023-06-14T12:05:39;25.80;57.50
16736;DHT22;17990;49.548;9.730;2023-06-14T12:08:06;25.60;57.40
16736;DHT22;17990;49.548;9.730;2023-06-14T12:10:39;25.80;57.20
16736;DHT22;17990;49.548;9.730;2023-06-14T12:13:09;25.50;58.10
16736;DHT22;17990;49.548;9.730;2023-06-14T12:15:36;25.20;57.70
16736;DHT22;17990;49.548;9.730;2023-06-14T12:18:05;25.10;58.20
16736;DHT22;17990;49.548;9.730;2023-06-14T12:20:34;25.00;57.70
16736;DHT22;17990;49.548;9.730;2023-06-14T12:23:04;24.70;58.80
16736;DHT22;17990;49.548;9.730;2023-06-14T12:25:31;24.40;59.00
16736;DHT22;17990;49.548;9.730;2023-06-14T12:28:05;24.70;58.40
16736;DHT22;17990;49.548;9.730;2023-06-14T12:30:32;24.60;58.30
16736;DHT22;17990;49.548;9.730;2023-06-14T12:33:00;24.90;58.20
16736;DHT22;17990;49.548;9.730;2023-06-14T12:35:27;25.30;56.80
16736;DHT22;17990;49.548;9.730;2023-06-14T12:37:56;25.60;56.00
16736;DHT22;17990;49.548;9.730;2023-06-14T12:40:23;26.00;54.80
16736;DHT22;17990;49.548;9.730;2023-06-14T12:42:50;25.90;55.30
16736;DHT22;17990;49.548;9.730;2023-06-14T12:45:17;25.90;54.60
16736;DHT22;17990;49.548;9.730;2023-06-14T12:47:44;26.10;54.50
16736;DHT22;17990;49.548;9.730;2023-06-14T12:50:11;26.30;55.30
16736;DHT22;17990;49.548;9.730;2023-06-14T12:52:37;26.00;56.10
16736;DHT22;17990;49.548;9.730;2023-06-14T12:55:06;25.90;56.10
16736;DHT22;17990;49.548;9.730;2023-06-14T12:57:33;25.60;56.60
16736;DHT22;17990;49.548;9.730;2023-06-14T13:00:02;25.80;56.80
16736;DHT22;17990;49.548;9.730;2023-06-14T13:02:30;25.80;56.10
16736;DHT22;17990;49.548;9.730;2023-06-14T13:04:56;26.00;56.30
16736;DHT22;17990;49.548;9.730;2023-06-14T13:07:24;26.30;55.70
16736;DHT22;17990;49.548;9.730;2023-06-14T13:09:51;26.10;56.40
16736;DHT22;17990;49.548;9.730;2023-06-14T13:12:19;25.80;56.30
16736;DHT22;17990;49.548;9.730;2023-06-14T13:14:46;25.80;56.10
16736;DHT22;17990;49.548;9.730;2023-06-14T13:17:13;25.10;56.60
16736;DHT22;17990;49.548;9.730;2023-06-14T13:19:40;25.10;56.90
16736;DHT22;17990;49.548;9.730;2023-06-14T13:22:07;25.20;57.10
16736;DHT22;17990;49.548;9.730;2023-06-14T13:24:34;25.20;57.40
16736;DHT22;17990;49.548;9.730;2023-06-14T13:27:02;25.00;57.00
16736;DHT22;17990;49.548;9.730;2023-06-14T13:29:30;25.20;56.30
16736;DHT22;17990;49.548;9.730;2023-06-14T13:31:58;25.40;56.30
16736;DHT22;17990;49.548;9.730;2023-06-14T13:34:26;25.40;56.60
16736;DHT22;17990;49.548;9.730;2023-06-14T13:36:53;25.50;56.90
16736;DHT22;17990;49.548;9.730;2023-06-14T13:39:20;25.30;57.00
16736;DHT22;17990;49.548;9.730;2023-06-14T13:41:47;25.60;56.20
16736;DHT22;17990;49.548;9.730;2023-06-14T13:44:14;25.80;55.90
16736;DHT22;17990;49.548;9.730;2023-06-14T13:46:45;26.20;54.40
16736;DHT22;17990;49.548;9.730;2023-06-14T13:49:12;26.40;54.40
16736;DHT22;17990;49.548;9.730;2023-06-14T13:51:39;26.80;53.80
16736;DHT22;17990;49.548;9.730;2023-06-14T13:54:05;27.00;53.60
16736;DHT22;17990;49.548;9.730;2023-06-14T13:56:32;26.60;54.50
16736;DHT22;17990;49.548;9.730;2023-06-14T13:58:59;26.30;54.80
16736;DHT22;17990;49.548;9.730;2023-06-14T14:01:26;26.10;55.50
16736;DHT22;17990;49.548;9.730;2023-06-14T14:03:55;25.90;54.80
16736;DHT22;17990;49.548;9.730;2023-06-14T14:06:24;25.90;55.30
16736;DHT22;17990;49.548;9.730;2023-06-14T14:08:50;25.70;54.50
16736;DHT22;17990;49.548;9.730;2023-06-14T14:11:18;25.60;54.50
16736;DHT22;17990;49.548;9.730;2023-06-14T14:13:45;25.40;54.60
16736;DHT22;17990;49.548;9.730;2023-06-14T14:16:12;25.20;55.50
16736;DHT22;17990;49.548;9.730;2023-06-14T14:18:39;25.20;56.10
16736;DHT22;17990;49.548;9.730;2023-06-14T14:21:08;25.60;54.60
16736;DHT22;17990;49.548;9.730;2023-06-14T14:23:35;25.80;54.40
16736;DHT22;17990;49.548;9.730;2023-06-14T14:26:01;26.10;54.20
16736;DHT22;17990;49.548;9.730;2023-06-14T14:28:29;25.90;54.30
16736;DHT22;17990;49.548;9.730;2023-06-14T14:30:56;25.80;54.90
16736;DHT22;17990;49.548;9.730;2023-06-14T14:33:23;25.90;54.50
16736;DHT22;17990;49.548;9.730;2023-06-14T14:35:50;25.60;54.90
16736;DHT22;17990;49.548;9.730;2023-06-14T14:38:18;25.40;55.10
16736;DHT22;17990;49.548;9.730;2023-06-14T14:40:45;25.80;55.10
16736;DHT22;17990;49.548;9.730;2023-06-14T14:43:12;25.40;55.40
16736;DHT22;17990;49.548;9.730;2023-06-14T14:45:39;25.20;56.10
16736;DHT22;17990;49.548;9.730;2023-06-14T14:48:05;25.20;56.00
16736;DHT22;17990;49.548;9.730;2023-06-14T14:50:32;25.20;55.50
16736;DHT22;17990;49.548;9.730;2023-06-14T14:53:00;25.40;55.50
16736;DHT22;17990;49.548;9.730;2023-06-14T14:55:28;25.70;55.20
16736;DHT22;17990;49.548;9.730;2023-06-14T14:57:56;25.50;54.90
16736;DHT22;17990;49.548;9.730;2023-06-14T15:00:23;25.50;54.90
16736;DHT22;17990;49.548;9.730;2023-06-14T15:02:49;25.30;54.60
16736;DHT22;17990;49.548;9.730;2023-06-14T15:05:16;25.10;55.30
16736;DHT22;17990;49.548;9.730;2023-06-14T15:07:43;25.00;55.00
16736;DHT22;17990;49.548;9.730;2023-06-14T15:10:11;25.00;55.70
16736;DHT22;17990;49.548;9.730;2023-06-14T15:12:39;25.40;55.20
16736;DHT22;17990;49.548;9.730;2023-06-14T15:15:07;25.70;55.00
16736;DHT22;17990;49.548;9.730;2023-06-14T15:17:35;25.90;54.20
16736;DHT22;17990;49.548;9.730;2023-06-14T15:20:02;26.20;54.00
16736;DHT22;17990;49.548;9.730;2023-06-14T15:22:31;26.00;54.70
16736;DHT22;17990;49.548;9.730;2023-06-14T15:24:58;26.10;54.10
16736;DHT22;17990;49.548;9.730;2023-06-14T15:27:25;26.10;53.90
16736;DHT22;17990;49.548;9.730;2023-06-14T15:29:54;25.50;55.10
16736;DHT22;17990;49.548;9.730;2023-06-14T15:32:21;25.40;55.10
16736;DHT22;17990;49.548;9.730;2023-06-14T15:34:48;25.40;54.90
16736;DHT22;17990;49.548;9.730;2023-06-14T15:37:15;25.40;55.30
16736;DHT22;17990;49.548;9.730;2023-06-14T15:39:41;25.40;54.80